Time;durP1;ratioP1;P1;durP2;ratioP2;P2;SDS_P1;SDS_P2;PMS_P1;PMS_P2;Temp;Humidity;BMP_temperature;BMP_pressure;BME280_temperature;BME280_humidity;BME280_pressure;Samples;Min_cycle;Max_cycle;Signal;HPM_P1;HPM_P2
2021/03/28 00:02:05;;;;;;;;;;;;;;;22.23;22.21;98809.78;5061073;28;939;-76
2021/03/28 00:04:42;;;;;;;;;;;;;;;22.51;22.08;98819.03;5061723;28;719;-77
2021/03/28 00:07:07;;;;;;;;;;;;;;;22.17;22.16;98800.16;5061880;28;656;-77
2021/03/28 00:09:36;;;;;;;;;;;;;;;22.01;22.47;98814.16;5044193;28;1018;-77
2021/03/28 00:12:21;;;;;;;;;;;;;;;21.93;22.66;98801.34;5062060;28;678;-77
2021/03/28 00:14:50;;;;;;;;;;;;;;;21.60;23.08;98800.97;5061105;28;1977;-76
2021/03/28 00:17:18;;;;;;;;;;;;;;;21.67;22.85;98800.91;5061405;28;962;-77
2021/03/28 00:19:45;;;;;;;;;;;;;;;21.57;22.94;98801.84;5061339;28;674;-77
2021/03/28 00:22:16;;;;;;;;;;;;;;;21.40;23.42;98798.03;5044461;28;1413;-76
2021/03/28 00:24:49;;;;;;;;;;;;;;;21.61;23.34;98798.97;5060980;28;774;-77
2021/03/28 00:27:19;;;;;;;;;;;;;;;22.07;22.66;98801.09;5044254;28;690;-77
2021/03/28 00:29:49;;;;;;;;;;;;;;;22.31;22.08;98801.94;5043541;28;932;-76
2021/03/28 00:32:44;;;;;;;;;;;;;;;22.24;22.24;98800.06;5044172;28;899;-77
2021/03/28 00:35:13;;;;;;;;;;;;;;;21.69;22.82;98801.25;5047854;28;1902;-77
2021/03/28 00:37:39;;;;;;;;;;;;;;;21.70;22.92;98804.88;5044037;28;650;-76
2021/03/28 00:40:10;;;;;;;;;;;;;;;21.72;23.02;98791.13;5043595;28;658;-77
2021/03/28 00:42:42;;;;;;;;;;;;;;;21.57;23.21;98796.19;5061228;28;642;-76
2021/03/28 00:45:24;;;;;;;;;;;;;;;21.60;22.93;98792.47;5043374;28;984;-77
2021/03/28 00:48:07;;;;;;;;;;;;;;;21.68;23.00;98794.00;5043670;28;911;-77
2021/03/28 00:50:37;;;;;;;;;;;;;;;22.09;22.54;98792.97;5027611;28;1348;-77
2021/03/28 00:53:05;;;;;;;;;;;;;;;22.42;22.03;98801.78;5027351;28;1238;-77
2021/03/28 00:55:41;;;;;;;;;;;;;;;22.43;22.17;98795.66;5028952;28;1882;-77
2021/03/28 00:58:08;;;;;;;;;;;;;;;21.94;22.78;98783.91;5043372;28;710;-76
2021/03/28 01:00:38;;;;;;;;;;;;;;;21.69;23.18;98794.78;5027360;28;1265;-77
2021/03/28 01:03:09;;;;;;;;;;;;;;;21.78;22.86;98789.41;5060165;28;900;-76
2021/03/28 01:05:41;;;;;;;;;;;;;;;21.49;23.38;98789.81;5043468;28;1004;-76
2021/03/28 01:08:16;;;;;;;;;;;;;;;21.49;23.22;98789.81;5060565;28;656;-76
2021/03/28 01:10:50;;;;;;;;;;;;;;;21.58;22.97;98780.78;5060665;28;1132;-76
2021/03/28 01:13:35;;;;;;;;;;;;;;;21.63;23.25;98788.81;5043036;28;715;-76
2021/03/28 01:16:16;;;;;;;;;;;;;;;21.74;23.18;98783.78;5060985;28;945;-76
2021/03/28 01:19:00;;;;;;;;;;;;;;;22.20;22.47;98787.97;5059848;28;923;-76
2021/03/28 01:21:33;;;;;;;;;;;;;;;22.33;22.34;98785.34;5060709;28;646;-76
2021/03/28 01:24:03;;;;;;;;;;;;;;;22.16;22.26;98780.75;5043162;28;722;-76
2021/03/28 01:26:29;;;;;;;;;;;;;;;21.87;22.82;98769.06;5043645;28;809;-76
2021/03/28 01:28:59;;;;;;;;;;;;;;;21.51;23.24;98769.56;5060301;28;638;-76
2021/03/28 01:31:35;;;;;;;;;;;;;;;21.72;23.21;98774.94;5060346;28;990;-75
2021/03/28 01:34:03;;;;;;;;;;;;;;;22.05;22.48;98780.88;5059871;28;1902;-76
2021/03/28 01:36:35;;;;;;;;;;;;;;;22.44;22.08;98776.63;5043245;28;731;-76
2021/03/28 01:39:03;;;;;;;;;;;;;;;22.44;22.14;98773.81;5060155;28;697;-76
2021/03/28 01:41:30;;;;;;;;;;;;;;;22.29;22.23;98779.72;5060086;28;784;-78
2021/03/28 01:44:05;;;;;;;;;;;;;;;21.96;22.84;98772.13;5042405;28;924;-75
2021/03/28 01:46:49;;;;;;;;;;;;;;;21.78;23.03;98770.38;5060321;28;881;-75
2021/03/28 01:49:20;;;;;;;;;;;;;;;21.71;23.15;98773.31;5059950;28;873;-75
2021/03/28 01:52:03;;;;;;;;;;;;;;;21.59;23.27;98771.84;5042928;28;640;-75
2021/03/28 01:54:28;;;;;;;;;;;;;;;21.53;23.16;98778.44;5042613;28;2151;-76
2021/03/28 01:56:57;;;;;;;;;;;;;;;22.01;22.58;98769.59;5060393;28;685;-76
2021/03/28 01:59:41;;;;;;;;;;;;;;;22.43;21.90;98766.50;5042914;28;1310;-75
2021/03/28 02:02:25;;;;;;;;;;;;;;;22.44;22.14;98779.47;5059732;28;848;-76
2021/03/28 02:05:02;;;;;;;;;;;;;;;22.00;22.61;98768.00;5059447;28;923;-75
2021/03/28 02:07:39;;;;;;;;;;;;;;;21.73;22.90;98759.53;5060201;28;698;-75
2021/03/28 02:10:23;;;;;;;;;;;;;;;21.68;22.93;98773.38;5042488;28;964;-76
2021/03/28 02:12:53;;;;;;;;;;;;;;;21.72;22.99;98760.75;5059993;28;734;-76
2021/03/28 02:15:22;;;;;;;;;;;;;;;21.81;22.83;98766.69;5060419;28;1977;-77
2021/03/28 02:17:59;;;;;;;;;;;;;;;21.56;23.37;98771.94;5045102;28;1010;-76
2021/03/28 02:20:31;;;;;;;;;;;;;;;21.55;23.25;98770.31;5063721;28;893;-76
2021/03/28 02:23:17;;;;;;;;;;;;;;;22.05;22.50;98769.56;5046598;28;727;-76
2021/03/28 02:25:42;;;;;;;;;;;;;;;22.38;22.39;98767.00;5046510;28;662;-77
2021/03/28 02:28:08;;;;;;;;;;;;;;;22.43;22.10;98775.81;5063640;28;766;-76
2021/03/28 02:30:43;;;;;;;;;;;;;;;22.12;22.70;98774.31;5064031;28;718;-76
2021/03/28 02:33:28;;;;;;;;;;;;;;;21.94;22.64;98775.41;5062991;28;925;-75
2021/03/28 02:36:19;;;;;;;;;;;;;;;21.79;22.87;98769.16;5032630;28;1899;-77
2021/03/28 02:39:05;;;;;;;;;;;;;;;21.38;23.60;98777.03;5046331;28;634;-76
2021/03/28 02:41:45;;;;;;;;;;;;;;;21.42;23.37;98769.28;5063703;28;487;-76
2021/03/28 02:44:30;;;;;;;;;;;;;;;21.94;22.84;98769.72;5062881;28;650;-76
2021/03/28 02:47:01;;;;;;;;;;;;;;;22.16;22.66;98773.03;5063245;28;662;-76
2021/03/28 02:49:27;;;;;;;;;;;;;;;22.46;22.30;98769.28;5062445;28;1003;-76
2021/03/28 02:52:11;;;;;;;;;;;;;;;22.18;22.36;98761.28;5063310;28;850;-76
2021/03/28 02:54:45;;;;;;;;;;;;;;;21.84;22.93;98763.00;5062627;28;1968;-76
2021/03/28 02:57:14;;;;;;;;;;;;;;;21.63;22.95;98757.66;5063402;28;658;-76
2021/03/28 02:59:39;;;;;;;;;;;;;;;21.79;23.22;98760.66;5062631;28;655;-76
2021/03/28 03:02:11;;;;;;;;;;;;;;;21.70;22.85;98753.91;5063038;28;615;-76
2021/03/28 03:05:00;;;;;;;;;;;;;;;21.66;23.33;98767.31;5062332;28;1081;-76
2021/03/28 03:07:26;;;;;;;;;;;;;;;21.53;23.55;98761.44;5034862;28;1034;-76
2021/03/28 03:09:59;;;;;;;;;;;;;;;21.89;22.87;98760.91;5062444;28;1029;-77
2021/03/28 03:12:33;;;;;;;;;;;;;;;22.22;22.56;98774.16;5045912;28;678;-76
2021/03/28 03:15:05;;;;;;;;;;;;;;;22.45;22.22;98766.88;5062362;28;1910;-76
2021/03/28 03:17:55;;;;;;;;;;;;;;;22.38;22.06;98772.66;5063159;28;651;-77
2021/03/28 03:20:37;;;;;;;;;;;;;;;21.81;22.94;98769.53;5062501;28;913;-76
2021/03/28 03:23:09;;;;;;;;;;;;;;;21.73;23.16;98770.84;5044912;28;865;-76
2021/03/28 03:25:53;;;;;;;;;;;;;;;21.82;22.87;98773.97;5062945;28;643;-76
2021/03/28 03:28:33;;;;;;;;;;;;;;;21.70;23.36;98777.38;5062111;28;699;-77
2021/03/28 03:31:02;;;;;;;;;;;;;;;21.70;23.00;98771.69;5063248;28;659;-77
2021/03/28 03:33:36;;;;;;;;;;;;;;;21.48;23.60;98782.53;5061955;28;757;-77
2021/03/28 03:36:05;;;;;;;;;;;;;;;21.35;23.81;98781.53;5062567;28;988;-76
2021/03/28 03:38:38;;;;;;;;;;;;;;;21.85;23.31;98784.44;5061466;28;905;-77
2021/03/28 03:41:22;;;;;;;;;;;;;;;22.20;22.51;98782.28;5045535;28;706;-77
2021/03/28 03:44:07;;;;;;;;;;;;;;;22.38;22.32;98778.34;5062109;28;707;-76
2021/03/28 03:46:36;;;;;;;;;;;;;;;21.84;22.87;98774.31;5045258;28;690;-77
2021/03/28 03:49:16;;;;;;;;;;;;;;;21.96;22.83;98786.28;5061870;28;638;-76
2021/03/28 03:51:48;;;;;;;;;;;;;;;21.74;23.30;98783.78;5061820;28;853;-77
2021/03/28 03:54:14;;;;;;;;;;;;;;;21.70;23.29;98794.38;5061657;28;1898;-77
2021/03/28 03:56:39;;;;;;;;;;;;;;;21.46;23.61;98789.88;5045155;28;599;-77
2021/03/28 03:59:11;;;;;;;;;;;;;;;21.64;23.41;98790.41;5044689;28;1165;-77
2021/03/28 04:01:38;;;;;;;;;;;;;;;21.52;23.61;98794.63;5062059;28;659;-77
2021/03/28 04:04:05;;;;;;;;;;;;;;;22.10;22.48;98788.91;5044336;28;651;-77
2021/03/28 04:06:49;;;;;;;;;;;;;;;22.34;22.20;98803.94;5061897;28;829;-76
2021/03/28 04:09:15;;;;;;;;;;;;;;;22.32;22.12;98801.50;5061227;28;973;-77
2021/03/28 04:11:58;;;;;;;;;;;;;;;22.03;22.75;98801.16;5062219;28;667;-77
2021/03/28 04:14:23;;;;;;;;;;;;;;;21.78;22.62;98798.72;5061693;28;1975;-77
2021/03/28 04:17:01;;;;;;;;;;;;;;;21.79;22.71;98800.31;5061953;28;702;-77
2021/03/28 04:20:02;;;;;;;;;;;;;;;21.69;23.07;98797.63;5061554;28;634;-77
2021/03/28 04:22:48;;;;;;;;;;;;;;;21.64;23.14;98804.56;5001126;28;1071;-77
2021/03/28 04:25:13;;;;;;;;;;;;;;;21.48;23.46;98801.56;5057050;28;892;-76
2021/03/28 04:27:54;;;;;;;;;;;;;;;21.51;23.10;98809.22;5061886;28;705;-76
2021/03/28 04:30:38;;;;;;;;;;;;;;;21.98;22.91;98803.69;5061484;28;757;-77
2021/03/28 04:33:27;;;;;;;;;;;;;;;22.18;22.12;98804.59;5061522;28;725;-77
2021/03/28 04:36:11;;;;;;;;;;;;;;;22.40;21.99;98807.88;5033774;28;1973;-76
2021/03/28 04:38:44;;;;;;;;;;;;;;;21.94;22.66;98808.59;5060735;28;885;-76
2021/03/28 04:41:28;;;;;;;;;;;;;;;21.74;23.02;98808.47;5044072;28;895;-77
2021/03/28 04:43:53;;;;;;;;;;;;;;;21.57;23.36;98813.19;5061197;28;710;-77
2021/03/28 04:46:28;;;;;;;;;;;;;;;21.68;23.20;98802.50;5061669;28;702;-77
2021/03/28 04:49:13;;;;;;;;;;;;;;;21.54;23.38;98814.00;5060720;28;633;-76
2021/03/28 04:52:01;;;;;;;;;;;;;;;21.59;23.09;98811.50;5061585;28;735;-76
2021/03/28 04:54:38;;;;;;;;;;;;;;;21.68;22.78;98818.69;5043425;28;1902;-77
2021/03/28 04:57:06;;;;;;;;;;;;;;;21.51;23.41;98817.72;5026811;28;1141;-76
2021/03/28 04:59:58;;;;;;;;;;;;;;;21.68;23.12;98813.81;5060780;28;627;-77
2021/03/28 05:02:38;;;;;;;;;;;;;;;21.44;23.14;98821.41;5038402;28;1191;-76
2021/03/28 05:05:18;;;;;;;;;;;;;;;21.58;23.23;98814.78;5043588;28;683;-77
2021/03/28 05:07:47;;;;;;;;;;;;;;;22.13;22.34;98816.44;5044070;28;697;-77
2021/03/28 05:10:25;;;;;;;;;;;;;;;22.44;22.10;98822.00;5060481;28;941;-76
2021/03/28 05:13:09;;;;;;;;;;;;;;;22.45;22.01;98826.44;5060671;28;794;-77
2021/03/28 05:15:38;;;;;;;;;;;;;;;22.24;22.37;98824.75;5061349;28;1957;-77
2021/03/28 05:18:33;;;;;;;;;;;;;;;21.90;22.59;98824.84;5060781;28;694;-76
2021/03/28 05:21:08;;;;;;;;;;;;;;;21.71;22.91;98834.81;5008430;28;1123;-76
2021/03/28 05:23:42;;;;;;;;;;;;;;;21.74;22.78;98834.78;5042876;28;734;-76
2021/03/28 05:26:13;;;;;;;;;;;;;;;22.30;22.27;98831.53;5043592;28;884;-77
2021/03/28 05:28:54;;;;;;;;;;;;;;;22.63;21.58;98838.25;5059926;28;893;-77
2021/03/28 05:31:39;;;;;;;;;;;;;;;22.03;22.48;98828.72;5061173;28;663;-77
2021/03/28 05:34:20;;;;;;;;;;;;;;;21.71;22.96;98841.31;5060196;28;1965;-76
2021/03/28 05:37:04;;;;;;;;;;;;;;;21.77;22.60;98839.59;5061202;28;973;-76
2021/03/28 05:39:48;;;;;;;;;;;;;;;21.89;22.68;98834.56;5060409;28;666;-77
2021/03/28 05:42:14;;;;;;;;;;;;;;;21.70;22.76;98839.69;5060767;28;862;-76
2021/03/28 05:44:58;;;;;;;;;;;;;;;22.30;22.06;98837.22;5059961;28;953;-76
2021/03/28 05:47:42;;;;;;;;;;;;;;;22.53;21.80;98836.41;5061075;28;694;-77
2021/03/28 05:50:26;;;;;;;;;;;;;;;22.16;22.09;98841.06;5060731;28;619;-76
2021/03/28 05:52:55;;;;;;;;;;;;;;;21.97;22.65;98842.56;5046809;28;785;-77
2021/03/28 05:55:25;;;;;;;;;;;;;;;21.64;22.94;98847.06;5064385;28;1883;-77
2021/03/28 05:58:10;;;;;;;;;;;;;;;21.49;23.45;98839.97;5046871;28;1092;-77
2021/03/28 06:00:38;;;;;;;;;;;;;;;21.79;22.88;98844.84;5064584;28;889;-77
2021/03/28 06:03:06;;;;;;;;;;;;;;;21.55;22.94;98847.59;5063991;28;789;-76
2021/03/28 06:05:47;;;;;;;;;;;;;;;21.79;22.69;98844.84;5064806;28;734;-77
2021/03/28 06:08:21;;;;;;;;;;;;;;;22.29;22.16;98846.97;5064015;28;682;-76
2021/03/28 06:11:05;;;;;;;;;;;;;;;22.38;21.96;98849.22;5047068;28;978;-77
2021/03/28 06:13:36;;;;;;;;;;;;;;;22.05;22.38;98846.88;5063665;28;809;-78
2021/03/28 06:16:14;;;;;;;;;;;;;;;21.92;22.80;98847.91;5064164;28;1902;-76
2021/03/28 06:18:58;;;;;;;;;;;;;;;21.80;22.69;98854.94;5063493;28;654;-77
2021/03/28 06:21:42;;;;;;;;;;;;;;;21.45;23.07;98850.53;5064038;28;670;-76
2021/03/28 06:24:13;;;;;;;;;;;;;;;22.03;22.40;98845.72;5063636;28;694;-76
2021/03/28 06:26:58;;;;;;;;;;;;;;;22.36;22.27;98855.34;5063977;28;666;-77
2021/03/28 06:29:42;;;;;;;;;;;;;;;22.24;22.13;98851.06;5063504;28;881;-76
2021/03/28 06:32:28;;;;;;;;;;;;;;;21.94;22.38;98860.41;5063410;28;934;-77
2021/03/28 06:35:17;;;;;;;;;;;;;;;21.50;23.12;98869.88;5046654;28;1952;-77
2021/03/28 06:38:00;;;;;;;;;;;;;;;21.72;22.90;98865.56;5055696;28;1030;-77
2021/03/28 06:40:45;;;;;;;;;;;;;;;21.65;22.75;98868.47;5063584;28;611;-76
2021/03/28 06:43:29;;;;;;;;;;;;;;;22.12;22.13;98865.03;5063246;28;790;-76
2021/03/28 06:46:13;;;;;;;;;;;;;;;22.41;21.90;98865.41;5046079;28;962;-76
2021/03/28 06:48:57;;;;;;;;;;;;;;;22.07;22.55;98867.09;5062995;28;868;-77
2021/03/28 06:51:41;;;;;;;;;;;;;;;21.79;22.73;98870.31;5063751;28;623;-76
2021/03/28 06:54:19;;;;;;;;;;;;;;;21.85;22.72;98863.75;5062880;28;1973;-77
2021/03/28 06:56:50;;;;;;;;;;;;;;;21.78;22.73;98875.19;5063460;28;722;-77
2021/03/28 06:59:25;;;;;;;;;;;;;;;21.63;23.09;98868.13;5063274;28;635;-76
2021/03/28 07:01:50;;;;;;;;;;;;;;;21.69;22.98;98872.06;5063010;28;973;-77
2021/03/28 07:04:28;;;;;;;;;;;;;;;21.59;23.09;98878.69;5062238;28;896;-77
2021/03/28 07:06:56;;;;;;;;;;;;;;;22.02;22.44;98875.25;5063606;28;656;-76
2021/03/28 07:09:33;;;;;;;;;;;;;;;22.41;22.19;98869.03;5062521;28;1026;-76
2021/03/28 07:12:19;;;;;;;;;;;;;;;22.26;22.04;98879.00;5046024;28;619;-77
2021/03/28 07:15:03;;;;;;;;;;;;;;;21.84;22.49;98881.97;5031719;28;1971;-76
2021/03/28 07:17:34;;;;;;;;;;;;;;;21.47;23.22;98876.41;5063194;28;902;-77
2021/03/28 07:20:19;;;;;;;;;;;;;;;21.79;22.87;98873.97;5045292;28;963;-77
2021/03/28 07:22:50;;;;;;;;;;;;;;;21.57;22.75;98876.28;5063215;28;652;-76
2021/03/28 07:25:34;;;;;;;;;;;;;;;21.68;23.00;98870.47;5062439;28;649;-77
2021/03/28 07:28:18;;;;;;;;;;;;;;;21.60;22.87;98885.94;5062661;28;654;-76
2021/03/28 07:31:03;;;;;;;;;;;;;;;21.66;22.75;98878.59;5062978;28;820;-76
2021/03/28 07:33:47;;;;;;;;;;;;;;;22.25;22.26;98885.91;5061840;28;875;-77
2021/03/28 07:36:26;;;;;;;;;;;;;;;22.43;21.98;98886.41;5063115;28;662;-76
2021/03/28 07:38:54;;;;;;;;;;;;;;;21.96;22.42;98891.94;5044727;28;806;-76
2021/03/28 07:41:20;;;;;;;;;;;;;;;21.90;22.57;98890.00;5062760;28;678;-77
2021/03/28 07:43:45;;;;;;;;;;;;;;;21.81;22.89;98888.53;5061924;28;637;-76
2021/03/28 07:46:32;;;;;;;;;;;;;;;21.75;22.89;98893.03;5045545;28;1124;-77
2021/03/28 07:49:12;;;;;;;;;;;;;;;21.98;22.48;98897.19;5061705;28;858;-77
2021/03/28 07:51:38;;;;;;;;;;;;;;;22.32;22.15;98897.91;5062761;28;662;-76
2021/03/28 07:54:03;;;;;;;;;;;;;;;22.42;21.85;98895.34;5061904;28;1905;-76
2021/03/28 07:56:47;;;;;;;;;;;;;;;22.04;22.17;98898.31;5062689;28;711;-76
2021/03/28 07:59:32;;;;;;;;;;;;;;;21.59;22.78;98892.84;5061949;28;674;-76
2021/03/28 08:01:57;;;;;;;;;;;;;;;21.84;22.94;98898.97;5062732;28;888;-76
2021/03/28 08:04:33;;;;;;;;;;;;;;;21.87;22.98;98900.19;5061469;28;911;-76
2021/03/28 08:07:01;;;;;;;;;;;;;;;22.38;21.96;98894.59;5044735;28;797;-77
2021/03/28 08:09:39;;;;;;;;;;;;;;;22.43;22.02;98894.13;5061251;28;956;-77
2021/03/28 08:12:08;;;;;;;;;;;;;;;22.01;22.70;98899.16;5044778;28;691;-76
2021/03/28 08:14:36;;;;;;;;;;;;;;;21.77;22.98;98896.25;5060607;28;1898;-76
2021/03/28 08:17:22;;;;;;;;;;;;;;;21.90;22.67;98901.34;5061945;28;1025;-77
2021/03/28 08:19:55;;;;;;;;;;;;;;;21.70;23.16;98896.31;5043601;28;899;-77
2021/03/28 08:22:21;;;;;;;;;;;;;;;21.71;23.25;98897.97;5044664;28;771;-76
2021/03/28 08:25:05;;;;;;;;;;;;;;;22.16;22.40;98897.75;5061356;28;619;-77
2021/03/28 08:27:33;;;;;;;;;;;;;;;22.42;22.24;98895.34;5061701;28;630;-77
2021/03/28 08:29:59;;;;;;;;;;;;;;;22.58;21.87;98898.31;5061124;28;623;-76
2021/03/28 08:32:43;;;;;;;;;;;;;;;22.36;22.08;98893.00;5061669;28;908;-77
2021/03/28 08:35:24;;;;;;;;;;;;;;;22.01;22.73;98893.50;5060884;28;1902;-77
2021/03/28 08:37:53;;;;;;;;;;;;;;;21.78;22.87;98889.34;5061446;28;599;-76
2021/03/28 08:40:21;;;;;;;;;;;;;;;21.62;23.25;98892.00;5061164;28;631;-76
2021/03/28 08:42:49;;;;;;;;;;;;;;;21.74;22.97;98891.44;5061303;28;682;-76
2021/03/28 08:45:30;;;;;;;;;;;;;;;21.84;23.09;98896.16;5061108;28;738;-77
2021/03/28 08:48:18;;;;;;;;;;;;;;;21.75;23.12;98887.38;5060914;28;1008;-77
2021/03/28 08:50:59;;;;;;;;;;;;;;;21.65;23.04;98888.31;5043805;28;942;-77
2021/03/28 08:53:28;;;;;;;;;;;;;;;21.74;23.18;98885.75;5043734;28;642;-77
2021/03/28 08:56:12;;;;;;;;;;;;;;;21.70;22.97;98890.66;5061222;28;1910;-77
2021/03/28 08:58:38;;;;;;;;;;;;;;;22.11;22.68;98884.06;5060438;28;678;-76
2021/03/28 09:01:10;;;;;;;;;;;;;;;22.45;22.08;98886.00;5044057;28;812;-77
2021/03/28 09:03:47;;;;;;;;;;;;;;;22.55;21.85;98887.84;5060378;28;947;-76
2021/03/28 09:06:19;;;;;;;;;;;;;;;22.07;22.39;98886.13;5061352;28;905;-77
2021/03/28 09:08:55;;;;;;;;;;;;;;;21.77;23.09;98884.94;5043066;28;813;-76
2021/03/28 09:11:24;;;;;;;;;;;;;;;21.80;23.08;98884.06;5044339;28;568;-77
2021/03/28 09:13:50;;;;;;;;;;;;;;;21.67;23.20;98885.88;5043031;28;1909;-77
2021/03/28 09:16:24;;;;;;;;;;;;;;;21.82;23.12;98889.31;5061058;28;703;-77
2021/03/28 09:19:19;;;;;;;;;;;;;;;21.69;23.19;98882.59;5060283;28;864;-77
2021/03/28 09:21:47;;;;;;;;;;;;;;;21.65;23.07;98888.31;5007161;28;1036;-76
2021/03/28 09:24:35;;;;;;;;;;;;;;;21.74;23.16;98882.94;5043238;28;690;-77
2021/03/28 09:27:13;;;;;;;;;;;;;;;21.64;23.33;98875.38;5064218;28;647;-76
2021/03/28 09:29:56;;;;;;;;;;;;;;;22.10;22.87;98862.59;5064721;28;787;-76
2021/03/28 09:32:51;;;;;;;;;;;;;;;22.25;22.46;98869.69;5048118;28;607;-76
2021/03/28 09:35:34;;;;;;;;;;;;;;;22.43;22.25;98872.22;5010954;28;1951;-77
2021/03/28 09:38:03;;;;;;;;;;;;;;;22.12;22.71;98877.16;5064058;28;838;-77
2021/03/28 09:40:47;;;;;;;;;;;;;;;21.71;23.29;98868.81;5065055;28;745;-77
2021/03/28 09:43:20;;;;;;;;;;;;;;;21.78;23.03;98858.19;5064642;28;666;-77
2021/03/28 09:45:46;;;;;;;;;;;;;;;21.77;23.04;98862.25;5065263;28;809;-77
2021/03/28 09:48:20;;;;;;;;;;;;;;;21.61;23.45;98864.91;5064593;28;764;-76
2021/03/28 09:51:04;;;;;;;;;;;;;;;21.59;23.40;98864.50;5064676;28;914;-77
2021/03/28 09:53:59;;;;;;;;;;;;;;;21.44;23.41;98854.59;5063879;28;891;-76
2021/03/28 09:56:31;;;;;;;;;;;;;;;21.27;23.68;98860.03;5051688;28;1142;-77
2021/03/28 09:59:20;;;;;;;;;;;;;;;21.78;22.97;98863.06;5063987;28;647;-76
2021/03/28 10:01:51;;;;;;;;;;;;;;;21.26;23.78;98855.59;5056494;28;1001;-77
2021/03/28 10:04:20;;;;;;;;;;;;;;;21.62;23.09;98846.69;5064070;28;655;-76
2021/03/28 10:06:53;;;;;;;;;;;;;;;21.71;22.84;98858.31;5064852;28;1003;-77
2021/03/28 10:09:20;;;;;;;;;;;;;;;22.03;22.76;98848.53;5046414;28;970;-77
2021/03/28 10:11:46;;;;;;;;;;;;;;;22.30;22.09;98849.34;5047018;28;687;-77
2021/03/28 10:14:18;;;;;;;;;;;;;;;22.23;22.28;98849.47;5046322;28;1906;-76
2021/03/28 10:16:47;;;;;;;;;;;;;;;21.91;22.85;98840.59;5046956;28;738;-75
2021/03/28 10:19:31;;;;;;;;;;;;;;;21.69;23.03;98842.94;5046481;28;665;-76
2021/03/28 10:22:15;;;;;;;;;;;;;;;21.66;23.13;98847.44;5064147;28;1011;-76
2021/03/28 10:24:46;;;;;;;;;;;;;;;21.54;23.29;98839.50;5063043;28;953;-77
2021/03/28 10:27:14;;;;;;;;;;;;;;;21.63;23.09;98845.44;5064309;28;770;-77
2021/03/28 10:29:49;;;;;;;;;;;;;;;22.07;22.39;98833.09;5063650;28;646;-76
2021/03/28 10:32:32;;;;;;;;;;;;;;;22.40;22.03;98839.06;5064227;28;705;-76
2021/03/28 10:35:17;;;;;;;;;;;;;;;21.94;22.64;98836.94;5046189;28;1969;-76
2021/03/28 10:38:03;;;;;;;;;;;;;;;21.67;23.07;98834.09;5062614;28;864;-77
2021/03/28 10:40:47;;;;;;;;;;;;;;;21.63;23.19;98839.78;5046269;28;976;-77
2021/03/28 10:43:22;;;;;;;;;;;;;;;21.62;23.13;98840.22;5063359;28;674;-77
2021/03/28 10:45:50;;;;;;;;;;;;;;;21.57;23.08;98841.50;5063864;28;655;-76
2021/03/28 10:48:31;;;;;;;;;;;;;;;21.81;22.65;98848.84;5063011;28;614;-76
2021/03/28 10:51:09;;;;;;;;;;;;;;;21.67;22.91;98840.56;5064229;28;752;-76
2021/03/28 10:53:53;;;;;;;;;;;;;;;21.79;22.80;98839.97;5062709;28;959;-77
2021/03/28 10:56:18;;;;;;;;;;;;;;;22.29;22.19;98844.13;5063264;28;975;-77
2021/03/28 10:58:58;;;;;;;;;;;;;;;22.23;22.28;98843.81;5062961;28;654;-76
2021/03/28 11:01:23;;;;;;;;;;;;;;;21.96;22.52;98842.97;5046310;28;678;-78
2021/03/28 11:04:08;;;;;;;;;;;;;;;21.76;22.47;98840.84;5062749;28;638;-76
2021/03/28 11:06:52;;;;;;;;;;;;;;;21.71;22.76;98835.66;5063496;28;630;-76
2021/03/28 11:09:20;;;;;;;;;;;;;;;21.78;22.79;98829.06;5062329;28;1018;-76
2021/03/28 11:11:49;;;;;;;;;;;;;;;22.44;22.14;98836.19;5062803;28;857;-77
2021/03/28 11:14:20;;;;;;;;;;;;;;;22.50;21.73;98828.78;5062532;28;1971;-76
2021/03/28 11:16:49;;;;;;;;;;;;;;;22.22;22.07;98830.03;5063241;28;610;-76
2021/03/28 11:19:20;;;;;;;;;;;;;;;21.87;22.57;98826.50;5062563;28;622;-77
2021/03/28 11:22:01;;;;;;;;;;;;;;;21.83;22.87;98831.44;5063289;28;718;-76
2021/03/28 11:24:35;;;;;;;;;;;;;;;21.74;23.02;98829.09;5044975;28;923;-76
2021/03/28 11:27:13;;;;;;;;;;;;;;;21.63;22.97;98839.78;5045774;28;932;-76
2021/03/28 11:29:45;;;;;;;;;;;;;;;21.97;22.64;98824.75;5062381;28;634;-76
2021/03/28 11:32:22;;;;;;;;;;;;;;;22.23;22.28;98835.31;5063357;28;712;-77
2021/03/28 11:35:14;;;;;;;;;;;;;;;22.52;21.85;98829.94;5044807;28;1985;-77
2021/03/28 11:37:44;;;;;;;;;;;;;;;22.00;22.58;98819.00;5045372;28;673;-77
2021/03/28 11:40:15;;;;;;;;;;;;;;;21.84;22.78;98805.50;5044655;28;916;-75
2021/03/28 11:42:41;;;;;;;;;;;;;;;21.58;22.96;98814.78;5062541;28;848;-77
2021/03/28 11:45:25;;;;;;;;;;;;;;;21.80;22.89;98810.41;5045037;28;607;-76
2021/03/28 11:47:54;;;;;;;;;;;;;;;21.88;22.77;98810.31;5062241;28;610;-76
2021/03/28 11:50:48;;;;;;;;;;;;;;;21.67;22.73;98812.22;5062169;28;662;-76
2021/03/28 11:53:23;;;;;;;;;;;;;;;21.71;22.92;98812.97;5049245;28;1128;-77
2021/03/28 11:55:49;;;;;;;;;;;;;;;21.83;22.48;98809.56;5061993;28;1984;-76
2021/03/28 11:58:14;;;;;;;;;;;;;;;21.79;22.68;98803.13;5061373;28;835;-76
2021/03/28 12:00:41;;;;;;;;;;;;;;;22.22;22.28;98802.50;5062144;28;951;-77
2021/03/28 12:03:18;;;;;;;;;;;;;;;22.47;22.04;98801.28;5061964;28;645;-77
2021/03/28 12:05:51;;;;;;;;;;;;;;;22.12;22.44;98805.50;5062557;28;703;-77
2021/03/28 12:08:17;;;;;;;;;;;;;;;21.87;22.72;98800.22;5061632;28;699;-76
2021/03/28 12:10:42;;;;;;;;;;;;;;;21.67;23.14;98794.44;5061832;28;1147;-76
2021/03/28 12:13:20;;;;;;;;;;;;;;;21.73;23.12;98799.19;5043796;28;974;-76
2021/03/28 12:15:45;;;;;;;;;;;;;;;21.68;23.14;98796.81;5061961;28;1887;-76
2021/03/28 12:18:28;;;;;;;;;;;;;;;21.70;23.09;98793.56;5061972;28;651;-76
2021/03/28 12:21:01;;;;;;;;;;;;;;;21.84;23.01;98799.81;5062273;28;799;-77
2021/03/28 12:23:30;;;;;;;;;;;;;;;22.11;22.54;98799.03;5061210;28;779;-76
2021/03/28 12:26:05;;;;;;;;;;;;;;;22.39;22.30;98786.44;5061836;28;992;-76
2021/03/28 12:28:50;;;;;;;;;;;;;;;22.02;22.50;98785.41;5043498;28;924;-76
2021/03/28 12:31:25;;;;;;;;;;;;;;;21.93;22.72;98790.00;5044178;28;782;-77
2021/03/28 12:34:11;;;;;;;;;;;;;;;21.81;22.89;98778.03;5043589;28;845;-77
2021/03/28 12:36:49;;;;;;;;;;;;;;;21.56;23.03;98763.44;5050994;28;1709;-76
2021/03/28 12:39:18;;;;;;;;;;;;;;;21.74;23.23;98783.00;5043744;28;770;-76
2021/03/28 12:42:01;;;;;;;;;;;;;;;21.85;22.79;98777.97;5044403;28;901;-76
2021/03/28 12:44:30;;;;;;;;;;;;;;;21.49;23.58;98769.97;5060665;28;856;-76
2021/03/28 12:46:56;;;;;;;;;;;;;;;21.59;23.42;98782.38;5061465;28;691;-76
2021/03/28 12:49:31;;;;;;;;;;;;;;;22.05;22.72;98769.56;5060916;28;1346;-76
2021/03/28 12:52:04;;;;;;;;;;;;;;;22.25;22.61;98772.50;5044344;28;1112;-77
2021/03/28 12:54:30;;;;;;;;;;;;;;;20.73;22.59;98514.78;5043282;28;1879;-77
2021/03/28 12:57:01;;;;;;;;;;;;;;;22.05;22.81;98769.56;5060866;28;900;-77
2021/03/28 12:59:39;;;;;;;;;;;;;;;21.76;23.05;98758.69;5060962;28;934;-76
2021/03/28 13:02:12;;;;;;;;;;;;;;;21.75;23.47;98759.88;5043162;28;750;-76
2021/03/28 13:04:37;;;;;;;;;;;;;;;21.72;23.36;98759.97;5060791;28;643;-77
2021/03/28 13:07:04;;;;;;;;;;;;;;;21.56;23.57;98754.94;5044311;28;706;-76
2021/03/28 13:09:36;;;;;;;;;;;;;;;21.75;23.44;98745.72;5043493;28;1015;-76
2021/03/28 13:12:07;;;;;;;;;;;;;;;21.71;23.15;98749.84;5043990;28;850;-76
2021/03/28 13:14:34;;;;;;;;;;;;;;;21.63;23.49;98748.38;5043053;28;1902;-76
2021/03/28 13:17:01;;;;;;;;;;;;;;;21.62;23.73;98750.41;5043380;28;865;-77
2021/03/28 13:19:28;;;;;;;;;;;;;;;21.57;23.74;98745.22;5043303;28;635;-77
2021/03/28 13:22:00;;;;;;;;;;;;;;;22.11;22.94;98742.34;5043440;28;901;-76
2021/03/28 13:24:26;;;;;;;;;;;;;;;22.41;22.60;98734.97;5042934;28;813;-76
2021/03/28 13:27:03;;;;;;;;;;;;;;;22.51;22.35;98733.97;5043176;28;860;-76
2021/03/28 13:29:36;;;;;;;;;;;;;;;22.04;22.99;98740.41;5043048;28;900;-77
2021/03/28 13:32:03;;;;;;;;;;;;;;;21.79;23.13;98723.81;5044670;28;719;-77
2021/03/28 13:34:28;;;;;;;;;;;;;;;21.77;23.31;98720.63;5042770;28;1923;-76
2021/03/28 13:37:06;;;;;;;;;;;;;;;21.83;23.45;98730.22;5060958;28;699;-76
2021/03/28 13:39:36;;;;;;;;;;;;;;;21.82;23.14;98728.63;5060575;28;646;-77
2021/03/28 13:42:16;;;;;;;;;;;;;;;21.85;23.08;98729.78;5043525;28;867;-76
2021/03/28 13:44:46;;;;;;;;;;;;;;;21.63;23.81;98737.84;5042984;28;884;-76
2021/03/28 13:47:12;;;;;;;;;;;;;;;21.60;23.67;98727.34;5060870;28;639;-76
2021/03/28 13:49:43;;;;;;;;;;;;;;;21.55;23.94;98730.66;5042720;28;837;-77